SEH041 LGKF-LGPZ
Flight info
| Callsign | SEH041 |
|---|---|
| Flight time | 0h 17m |
| Altitude | 5000 |
| Route | GARTA |
| Aircraft | AT46/M-SDFGIRY/S |
Departure
| Time | 2026-04-16 21:04 |
|---|---|
| Airport | Kefallinia Airport (LGKF) |
Arrival
| Time | 2026-04-16 21:22 |
|---|---|
| Airport | Aktion National Airport (LGPZ) |
| Time | Latitude | Longitude | Altitude | Speed | Heading |
|---|---|---|---|---|---|
| 2026-04-16 20:39 | 38.11956 | 20.50373 | 52 ft | 0 kts | 57° |
| 2026-04-16 20:57 | 38.11948 | 20.50357 | 51 ft | 4 kts | 56° |
| 2026-04-16 20:57 | 38.11933 | 20.50329 | 48 ft | 4 kts | 56° |
| 2026-04-16 20:57 | 38.11922 | 20.50307 | 52 ft | 0 kts | 58° |
| 2026-04-16 20:59 | 38.11922 | 20.50309 | 52 ft | 1 kts | 58° |
| 2026-04-16 21:00 | 38.11928 | 20.50341 | 48 ft | 4 kts | 113° |
| 2026-04-16 21:00 | 38.11896 | 20.50305 | 52 ft | 16 kts | 265° |
| 2026-04-16 21:00 | 38.11902 | 20.50142 | 48 ft | 18 kts | 307° |
| 2026-04-16 21:00 | 38.11999 | 20.50046 | 49 ft | 21 kts | 322° |
| 2026-04-16 21:01 | 38.12140 | 20.49936 | 49 ft | 21 kts | 326° |
| 2026-04-16 21:01 | 38.12245 | 20.49851 | 50 ft | 15 kts | 328° |
| 2026-04-16 21:01 | 38.12323 | 20.49790 | 51 ft | 12 kts | 323° |
| 2026-04-16 21:01 | 38.12428 | 20.49690 | 50 ft | 21 kts | 324° |
| 2026-04-16 21:02 | 38.12534 | 20.49602 | 49 ft | 16 kts | 326° |
| 2026-04-16 21:02 | 38.12623 | 20.49522 | 47 ft | 15 kts | 327° |
| 2026-04-16 21:02 | 38.12709 | 20.49453 | 46 ft | 14 kts | 328° |
| 2026-04-16 21:03 | 38.12843 | 20.49297 | 45 ft | 10 kts | 298° |
| 2026-04-16 21:03 | 38.12871 | 20.49311 | 45 ft | 6 kts | 116° |
| 2026-04-16 21:03 | 38.12857 | 20.49328 | 44 ft | 0 kts | 149° |
| 2026-04-16 21:03 | 38.12746 | 20.49428 | 46 ft | 55 kts | 141° |
| 2026-04-16 21:04 | 38.12209 | 20.49881 | 49 ft | 126 kts | 144° |
| 2026-04-16 21:04 | 38.11391 | 20.50531 | 357 ft | 138 kts | 146° |
| 2026-04-16 21:04 | 38.10600 | 20.51207 | 919 ft | 134 kts | 141° |
| 2026-04-16 21:04 | 38.09833 | 20.51951 | 1270 ft | 146 kts | 137° |
| 2026-04-16 21:05 | 38.09029 | 20.52746 | 1711 ft | 154 kts | 141° |
| 2026-04-16 21:05 | 38.08043 | 20.53529 | 2077 ft | 176 kts | 144° |
| 2026-04-16 21:05 | 38.06976 | 20.54322 | 2780 ft | 177 kts | 143° |
| 2026-04-16 21:05 | 38.05979 | 20.55261 | 3208 ft | 188 kts | 121° |
| 2026-04-16 21:06 | 38.05671 | 20.56912 | 3327 ft | 204 kts | 80° |
| 2026-04-16 21:06 | 38.06395 | 20.58495 | 3600 ft | 219 kts | 42° |
| 2026-04-16 21:06 | 38.07848 | 20.59185 | 3913 ft | 235 kts | 6° |
| 2026-04-16 21:06 | 38.09448 | 20.58664 | 4236 ft | 240 kts | 336° |
| 2026-04-16 21:07 | 38.10930 | 20.57716 | 4577 ft | 238 kts | 337° |
| 2026-04-16 21:07 | 38.12406 | 20.56828 | 4859 ft | 239 kts | 340° |
| 2026-04-16 21:07 | 38.13987 | 20.56116 | 5009 ft | 245 kts | 347° |
| 2026-04-16 21:07 | 38.15655 | 20.55567 | 5064 ft | 251 kts | 352° |
| 2026-04-16 21:08 | 38.17400 | 20.55271 | 5080 ft | 255 kts | 360° |
| 2026-04-16 21:08 | 38.19181 | 20.55284 | 5074 ft | 256 kts | 7° |
| 2026-04-16 21:08 | 38.20977 | 20.55468 | 5098 ft | 261 kts | 10° |
| 2026-04-16 21:08 | 38.22804 | 20.55713 | 5063 ft | 267 kts | 10° |
| 2026-04-16 21:09 | 38.24671 | 20.55958 | 5092 ft | 270 kts | 10° |
| 2026-04-16 21:09 | 38.26519 | 20.56170 | 5151 ft | 264 kts | 9° |
| 2026-04-16 21:09 | 38.27731 | 20.56295 | 5219 ft | 263 kts | 8° |
| 2026-04-16 21:09 | 38.30152 | 20.56542 | 5196 ft | 263 kts | 9° |
| 2026-04-16 21:10 | 38.31980 | 20.56723 | 5152 ft | 262 kts | 9° |
| 2026-04-16 21:10 | 38.33798 | 20.56905 | 5122 ft | 262 kts | 9° |
| 2026-04-16 21:10 | 38.35023 | 20.57030 | 5118 ft | 260 kts | 9° |
| 2026-04-16 21:10 | 38.36821 | 20.57211 | 5111 ft | 258 kts | 9° |
| 2026-04-16 21:11 | 38.38602 | 20.57387 | 5109 ft | 256 kts | 9° |
| 2026-04-16 21:11 | 38.40352 | 20.57564 | 5117 ft | 255 kts | 8° |
| 2026-04-16 21:11 | 38.42118 | 20.57741 | 5115 ft | 255 kts | 7° |
| 2026-04-16 21:11 | 38.43889 | 20.57514 | 5121 ft | 257 kts | 353° |
| 2026-04-16 21:12 | 38.45661 | 20.57075 | 5112 ft | 261 kts | 352° |
| 2026-04-16 21:12 | 38.47444 | 20.56599 | 5105 ft | 262 kts | 351° |
| 2026-04-16 21:12 | 38.49228 | 20.56106 | 5101 ft | 262 kts | 351° |
| 2026-04-16 21:12 | 38.51012 | 20.55605 | 5104 ft | 262 kts | 351° |
| 2026-04-16 21:13 | 38.52793 | 20.55102 | 5112 ft | 262 kts | 351° |
| 2026-04-16 21:13 | 38.54575 | 20.54598 | 5112 ft | 262 kts | 351° |
| 2026-04-16 21:13 | 38.56360 | 20.54092 | 5115 ft | 263 kts | 351° |
| 2026-04-16 21:13 | 38.58150 | 20.53584 | 5115 ft | 263 kts | 351° |
| 2026-04-16 21:14 | 38.59935 | 20.53077 | 5114 ft | 263 kts | 351° |
| 2026-04-16 21:14 | 38.61723 | 20.52570 | 5115 ft | 263 kts | 351° |
| 2026-04-16 21:14 | 38.63491 | 20.52071 | 5112 ft | 262 kts | 350° |
| 2026-04-16 21:14 | 38.65275 | 20.51593 | 5114 ft | 260 kts | 351° |
| 2026-04-16 21:15 | 38.67069 | 20.51321 | 5115 ft | 260 kts | 358° |
| 2026-04-16 21:15 | 38.68879 | 20.51166 | 5113 ft | 260 kts | 359° |
| 2026-04-16 21:15 | 38.70681 | 20.51040 | 5114 ft | 259 kts | 359° |
| 2026-04-16 21:15 | 38.72485 | 20.50927 | 5117 ft | 259 kts | 360° |
| 2026-04-16 21:16 | 38.74284 | 20.50820 | 5113 ft | 259 kts | 360° |
| 2026-04-16 21:16 | 38.76081 | 20.50727 | 5117 ft | 255 kts | 2° |
| 2026-04-16 21:16 | 38.77740 | 20.51340 | 5113 ft | 249 kts | 36° |
| 2026-04-16 21:16 | 38.78945 | 20.52863 | 5117 ft | 246 kts | 50° |
| 2026-04-16 21:17 | 38.80043 | 20.54562 | 5038 ft | 252 kts | 52° |
| 2026-04-16 21:17 | 38.81244 | 20.56244 | 4742 ft | 256 kts | 46° |
| 2026-04-16 21:17 | 38.82556 | 20.57724 | 4272 ft | 248 kts | 40° |
| 2026-04-16 21:17 | 38.83951 | 20.58988 | 3776 ft | 242 kts | 36° |
| 2026-04-16 21:18 | 38.85354 | 20.60138 | 3287 ft | 233 kts | 34° |
| 2026-04-16 21:18 | 38.86655 | 20.61192 | 2712 ft | 212 kts | 34° |
| 2026-04-16 21:18 | 38.87814 | 20.62236 | 2075 ft | 198 kts | 41° |
| 2026-04-16 21:18 | 38.88675 | 20.63507 | 1580 ft | 181 kts | 60° |
| 2026-04-16 21:19 | 38.89094 | 20.64980 | 1131 ft | 171 kts | 76° |
| 2026-04-16 21:19 | 38.89305 | 20.66473 | 704 ft | 162 kts | 78° |
| 2026-04-16 21:19 | 38.89615 | 20.67711 | 696 ft | 133 kts | 56° |
| 2026-04-16 21:19 | 38.90117 | 20.68615 | 618 ft | 119 kts | 62° |
| 2026-04-16 21:20 | 38.90400 | 20.69593 | 789 ft | 119 kts | 72° |
| 2026-04-16 21:20 | 38.90658 | 20.70617 | 717 ft | 120 kts | 69° |
| 2026-04-16 21:20 | 38.90978 | 20.71616 | 607 ft | 119 kts | 64° |
| 2026-04-16 21:20 | 38.91305 | 20.72596 | 374 ft | 119 kts | 65° |
| 2026-04-16 21:21 | 38.91623 | 20.73596 | 252 ft | 124 kts | 63° |
| 2026-04-16 21:21 | 38.91960 | 20.74624 | 125 ft | 124 kts | 63° |
| 2026-04-16 21:21 | 38.92287 | 20.75632 | 12 ft | 116 kts | 65° |
| 2026-04-16 21:21 | 38.92545 | 20.76451 | 10 ft | 82 kts | 66° |
| 2026-04-16 21:22 | 38.92698 | 20.76935 | 8 ft | 37 kts | 68° |
| 2026-04-16 21:22 | 38.92745 | 20.77085 | 7 ft | 13 kts | 71° |
| 2026-04-16 21:22 | 38.92770 | 20.77172 | 7 ft | 8 kts | 66° |
| 2026-04-16 21:22 | 38.92787 | 20.77222 | 7 ft | 1 kts | 53° |
| 2026-04-16 21:23 | 38.92861 | 20.77225 | 8 ft | 9 kts | 335° |
| 2026-04-16 21:23 | 38.92896 | 20.77218 | 8 ft | 2 kts | 35° |
| 2026-04-16 21:23 | 38.92920 | 20.77239 | 8 ft | 6 kts | 36° |
| 2026-04-16 21:23 | 38.92945 | 20.77263 | 9 ft | 0 kts | 32° |
| 2026-04-16 21:24 | 38.92953 | 20.77261 | 9 ft | 8 kts | 344° |
| 2026-04-16 21:24 | 38.92972 | 20.77207 | 9 ft | 5 kts | 295° |
| 2026-04-16 21:24 | 38.92997 | 20.77157 | 9 ft | 6 kts | 305° |
| 2026-04-16 21:25 | 38.93005 | 20.77144 | 9 ft | 0 kts | 305° |